Time;durP1;ratioP1;P1;durP2;ratioP2;P2;SDS_P1;SDS_P2;PMS_P1;PMS_P2;Temp;Humidity;BMP_temperature;BMP_pressure;BME280_temperature;BME280_humidity;BME280_pressure;Samples;Min_cycle;Max_cycle;Signal;HPM_P1;HPM_P2
2021/12/26 00:00:42;;;;;;;236.73;124.43;;;;;;;;;;4405922;32;20572;-74
2021/12/26 00:03:08;;;;;;;267.63;139.57;;;;;;;;;;4406469;32;20209;-76
2021/12/26 00:05:34;;;;;;;273.37;138.00;;;;;;;;;;4407231;32;20469;-74
2021/12/26 00:07:59;;;;;;;274.73;136.03;;;;;;;;;;4406305;32;20228;-71
2021/12/26 00:10:26;;;;;;;283.20;144.17;;;;;;;;;;4406551;32;20196;-75
2021/12/26 00:12:53;;;;;;;287.93;144.50;;;;;;;;;;4406664;32;20217;-73
2021/12/26 00:15:18;;;;;;;328.87;154.87;;;;;;;;;;4406344;32;20202;-73
2021/12/26 00:17:44;;;;;;;311.03;156.30;;;;;;;;;;4406610;32;20331;-72
2021/12/26 00:20:11;;;;;;;309.83;151.67;;;;;;;;;;4407952;32;20622;-83
2021/12/26 00:22:37;;;;;;;280.30;140.17;;;;;;;;;;4409807;32;20221;-73
2021/12/26 00:25:05;;;;;;;298.33;144.27;;;;;;;;;;4408602;32;20305;-75
2021/12/26 00:27:30;;;;;;;299.23;136.03;;;;;;;;;;4407815;32;20222;-79
2021/12/26 00:29:56;;;;;;;274.80;131.57;;;;;;;;;;4408629;32;20299;-75
2021/12/26 00:32:21;;;;;;;246.97;125.63;;;;;;;;;;4409224;32;20655;-75
2021/12/26 00:34:50;;;;;;;256.27;129.10;;;;;;;;;;4393186;32;20257;-74
2021/12/26 00:37:16;;;;;;;243.20;127.83;;;;;;;;;;4392355;32;20281;-76
2021/12/26 00:39:42;;;;;;;259.23;125.87;;;;;;;;;;4406072;32;20227;-73
2021/12/26 00:42:08;;;;;;;266.47;127.87;;;;;;;;;;4406404;32;20218;-72
2021/12/26 00:44:38;;;;;;;259.43;126.67;;;;;;;;;;4407256;32;20221;-72
2021/12/26 00:47:04;;;;;;;258.23;130.93;;;;;;;;;;4406680;32;20250;-75
2021/12/26 00:49:30;;;;;;;254.67;129.00;;;;;;;;;;4392879;32;20250;-73
2021/12/26 00:51:57;;;;;;;257.20;129.03;;;;;;;;;;4406376;32;20307;-74
2021/12/26 00:54:22;;;;;;;270.63;131.73;;;;;;;;;;4407345;32;20235;-72
2021/12/26 00:56:48;;;;;;;305.87;156.50;;;;;;;;;;4407834;32;20273;-72
2021/12/26 00:59:13;;;;;;;297.33;147.90;;;;;;;;;;4406840;32;20725;-73
2021/12/26 01:01:40;;;;;;;305.03;152.97;;;;;;;;;;4407403;32;20655;-72
2021/12/26 01:04:05;;;;;;;303.87;145.77;;;;;;;;;;4406394;32;20547;-72
2021/12/26 01:06:31;;;;;;;295.17;148.00;;;;;;;;;;4406828;32;20334;-72
2021/12/26 01:08:56;;;;;;;311.60;156.27;;;;;;;;;;4406502;32;20228;-72
2021/12/26 01:11:35;;;;;;;315.80;157.00;;;;;;;;;;4407194;32;20213;-71
2021/12/26 01:14:03;;;;;;;336.53;158.40;;;;;;;;;;4406260;32;20243;-76
2021/12/26 01:16:29;;;;;;;370.87;185.13;;;;;;;;;;4405543;32;20256;-73
2021/12/26 01:19:05;;;;;;;416.90;208.97;;;;;;;;;;4405852;32;20205;-75
2021/12/26 01:21:31;;;;;;;369.50;191.47;;;;;;;;;;4405758;32;20292;-72
2021/12/26 01:24:00;;;;;;;416.00;209.13;;;;;;;;;;4405697;32;20340;-71
2021/12/26 01:26:27;;;;;;;420.47;210.40;;;;;;;;;;4405037;32;20241;-72
2021/12/26 01:28:53;;;;;;;433.63;212.30;;;;;;;;;;4406042;32;20623;-72
2021/12/26 01:31:20;;;;;;;438.57;220.03;;;;;;;;;;4405237;32;20225;-74
2021/12/26 01:33:48;;;;;;;433.97;218.40;;;;;;;;;;4405395;32;20261;-73
2021/12/26 01:36:14;;;;;;;426.50;210.27;;;;;;;;;;4404755;32;20218;-71
2021/12/26 01:38:40;;;;;;;438.77;216.07;;;;;;;;;;4404576;32;20259;-71
2021/12/26 01:41:09;;;;;;;424.17;205.87;;;;;;;;;;4404894;32;20241;-74
2021/12/26 01:43:36;;;;;;;414.30;197.70;;;;;;;;;;4391032;32;20265;-72
2021/12/26 01:46:02;;;;;;;385.40;189.67;;;;;;;;;;4404700;32;20221;-72
2021/12/26 01:48:28;;;;;;;328.17;166.40;;;;;;;;;;4391742;32;20312;-71
2021/12/26 01:50:54;;;;;;;317.73;161.13;;;;;;;;;;4390662;32;20237;-72
2021/12/26 01:53:23;;;;;;;344.13;170.23;;;;;;;;;;4404815;32;20209;-72
2021/12/26 01:55:50;;;;;;;363.93;174.83;;;;;;;;;;4404543;32;20240;-72
2021/12/26 01:58:20;;;;;;;349.90;165.60;;;;;;;;;;4404770;32;20209;-72
2021/12/26 02:00:52;;;;;;;297.83;153.20;;;;;;;;;;4404577;32;20294;-71
2021/12/26 02:03:17;;;;;;;310.63;156.17;;;;;;;;;;4404522;32;20210;-72
2021/12/26 02:05:43;;;;;;;268.40;139.07;;;;;;;;;;4404296;32;20217;-76
2021/12/26 02:08:09;;;;;;;233.37;114.83;;;;;;;;;;4404688;32;20518;-71
2021/12/26 02:10:35;;;;;;;216.73;112.37;;;;;;;;;;4390572;32;20300;-72
2021/12/26 02:13:00;;;;;;;253.00;125.07;;;;;;;;;;4390716;32;20632;-72
2021/12/26 02:15:26;;;;;;;220.90;111.77;;;;;;;;;;4404144;32;20206;-72
2021/12/26 02:17:52;;;;;;;227.30;116.53;;;;;;;;;;4390626;32;20234;-71
2021/12/26 02:20:19;;;;;;;228.67;114.10;;;;;;;;;;4408389;32;20304;-74
2021/12/26 02:22:50;;;;;;;234.13;117.13;;;;;;;;;;4407393;32;20695;-73
2021/12/26 02:28:00;;;;;;;221.93;109.97;;;;;;;;;;4407671;32;20703;-73
2021/12/26 02:30:26;;;;;;;213.70;112.53;;;;;;;;;;4408207;32;20198;-72
2021/12/26 02:32:52;;;;;;;194.57;104.30;;;;;;;;;;4407769;32;20310;-71
2021/12/26 02:35:20;;;;;;;203.23;106.53;;;;;;;;;;4407619;32;20202;-71
2021/12/26 02:37:47;;;;;;;232.70;119.93;;;;;;;;;;4407618;32;20276;-72
2021/12/26 02:40:13;;;;;;;251.30;128.73;;;;;;;;;;4407144;32;20649;-78
2021/12/26 02:42:39;;;;;;;272.10;136.27;;;;;;;;;;4407343;32;20249;-73
2021/12/26 02:45:05;;;;;;;273.60;136.30;;;;;;;;;;4407338;32;20660;-74
2021/12/26 02:47:33;;;;;;;284.83;147.57;;;;;;;;;;4393557;32;20316;-77
2021/12/26 02:50:00;;;;;;;328.57;155.73;;;;;;;;;;4407036;32;20500;-73
2021/12/26 02:52:27;;;;;;;339.97;166.37;;;;;;;;;;4407223;32;20225;-74
2021/12/26 02:54:52;;;;;;;342.57;166.47;;;;;;;;;;4407163;32;20273;-71
2021/12/26 02:57:18;;;;;;;328.77;162.73;;;;;;;;;;4407289;32;20226;-71
2021/12/26 02:59:43;;;;;;;317.37;152.60;;;;;;;;;;4407165;32;20249;-74
2021/12/26 03:02:09;;;;;;;325.43;149.87;;;;;;;;;;4406994;32;20244;-77
2021/12/26 03:04:35;;;;;;;332.00;160.60;;;;;;;;;;4406643;32;20566;-76
2021/12/26 03:07:03;;;;;;;318.33;157.83;;;;;;;;;;4406947;32;20268;-74
2021/12/26 03:09:35;;;;;;;347.77;167.00;;;;;;;;;;4406827;32;20607;-80
2021/12/26 03:12:00;;;;;;;348.60;168.23;;;;;;;;;;4406817;32;20247;-76
2021/12/26 03:14:26;;;;;;;331.93;160.17;;;;;;;;;;4406651;32;20206;-75
2021/12/26 03:16:53;;;;;;;311.33;148.70;;;;;;;;;;4406935;32;20558;-75
2021/12/26 03:19:18;;;;;;;313.23;151.87;;;;;;;;;;4407013;32;20618;-79
2021/12/26 03:21:48;;;;;;;298.00;140.10;;;;;;;;;;4406659;32;20237;-75
2021/12/26 03:24:14;;;;;;;299.57;140.33;;;;;;;;;;4393184;32;20268;-76
2021/12/26 03:26:39;;;;;;;257.70;129.73;;;;;;;;;;4406123;32;20623;-77
2021/12/26 03:29:05;;;;;;;269.90;127.90;;;;;;;;;;4406055;32;20258;-74
2021/12/26 03:31:30;;;;;;;238.70;119.37;;;;;;;;;;4405961;32;20217;-78
2021/12/26 03:33:55;;;;;;;239.30;118.43;;;;;;;;;;4406863;32;20336;-76
2021/12/26 03:36:21;;;;;;;233.90;117.00;;;;;;;;;;4406813;32;20736;-76
2021/12/26 03:38:47;;;;;;;251.80;119.57;;;;;;;;;;4406436;32;20224;-78
2021/12/26 03:41:13;;;;;;;231.97;118.47;;;;;;;;;;4392546;32;20237;-73
2021/12/26 03:43:38;;;;;;;213.83;111.50;;;;;;;;;;4406269;32;20630;-78
2021/12/26 03:46:03;;;;;;;275.93;131.57;;;;;;;;;;4405999;32;20282;-77
2021/12/26 03:48:29;;;;;;;317.33;152.77;;;;;;;;;;4406149;32;20221;-78
2021/12/26 03:50:57;;;;;;;324.87;159.07;;;;;;;;;;4406288;32;20248;-73
2021/12/26 03:53:22;;;;;;;309.60;153.50;;;;;;;;;;4406148;32;20205;-71
2021/12/26 03:55:49;;;;;;;290.87;147.33;;;;;;;;;;4406044;32;20283;-77
2021/12/26 03:58:15;;;;;;;307.37;146.10;;;;;;;;;;4406230;32;20202;-80
2021/12/26 04:00:42;;;;;;;381.93;186.83;;;;;;;;;;4406224;32;20213;-75
2021/12/26 04:03:08;;;;;;;380.80;180.53;;;;;;;;;;4406322;32;20292;-79
2021/12/26 04:05:34;;;;;;;319.70;160.83;;;;;;;;;;4405923;32;20262;-77
2021/12/26 04:08:00;;;;;;;341.43;162.50;;;;;;;;;;4406544;32;20202;-78
2021/12/26 04:10:25;;;;;;;342.43;168.07;;;;;;;;;;4405854;32;20227;-75
2021/12/26 04:12:53;;;;;;;346.30;167.00;;;;;;;;;;4406642;32;20291;-74
2021/12/26 04:15:21;;;;;;;341.60;167.20;;;;;;;;;;4406227;32;20691;-73
2021/12/26 04:17:47;;;;;;;317.90;153.50;;;;;;;;;;4406128;32;20304;-75
2021/12/26 04:20:13;;;;;;;316.20;156.23;;;;;;;;;;4406372;32;20227;-76
2021/12/26 04:22:39;;;;;;;316.67;156.90;;;;;;;;;;4405992;32;20633;-74
2021/12/26 04:25:06;;;;;;;309.00;156.30;;;;;;;;;;4406217;32;20209;-72
2021/12/26 04:27:32;;;;;;;299.30;148.47;;;;;;;;;;4405866;32;20288;-74
2021/12/26 04:29:57;;;;;;;307.13;147.87;;;;;;;;;;4405808;32;20655;-72
2021/12/26 04:32:23;;;;;;;333.80;156.27;;;;;;;;;;4405694;32;20230;-72
2021/12/26 04:34:48;;;;;;;318.20;152.37;;;;;;;;;;4405610;32;20276;-72
2021/12/26 04:37:14;;;;;;;309.67;150.77;;;;;;;;;;4405879;32;20272;-75
2021/12/26 04:39:40;;;;;;;321.07;149.37;;;;;;;;;;4405502;32;20272;-75
2021/12/26 04:42:06;;;;;;;293.07;143.63;;;;;;;;;;4405083;32;20571;-72
2021/12/26 04:44:32;;;;;;;307.37;147.93;;;;;;;;;;4405871;32;20272;-73
2021/12/26 04:46:58;;;;;;;284.77;143.83;;;;;;;;;;4405779;32;20288;-77
2021/12/26 04:49:24;;;;;;;300.77;147.73;;;;;;;;;;4406148;32;20273;-74
2021/12/26 04:51:50;;;;;;;303.47;153.30;;;;;;;;;;4405716;32;20280;-77
2021/12/26 04:54:15;;;;;;;325.20;155.03;;;;;;;;;;4405657;32;20198;-73
2021/12/26 04:56:41;;;;;;;329.10;158.47;;;;;;;;;;4405616;32;20292;-78
2021/12/26 04:59:06;;;;;;;310.47;155.33;;;;;;;;;;4405895;32;20264;-73
2021/12/26 05:01:32;;;;;;;319.30;155.03;;;;;;;;;;4405149;32;20550;-74
2021/12/26 05:03:57;;;;;;;314.73;157.33;;;;;;;;;;4405249;32;20223;-76
2021/12/26 05:06:26;;;;;;;328.70;166.83;;;;;;;;;;4405186;32;20654;-72
2021/12/26 05:08:51;;;;;;;317.77;159.10;;;;;;;;;;4407061;32;20686;-78
2021/12/26 05:11:17;;;;;;;326.07;155.77;;;;;;;;;;4405665;32;20290;-75
2021/12/26 05:13:42;;;;;;;326.97;158.93;;;;;;;;;;4405538;32;20270;-75
2021/12/26 05:16:08;;;;;;;343.03;167.57;;;;;;;;;;4405590;32;20527;-76
2021/12/26 05:18:33;;;;;;;344.83;168.00;;;;;;;;;;4405994;32;20223;-77
2021/12/26 05:20:59;;;;;;;348.77;176.60;;;;;;;;;;4405280;32;20282;-78
2021/12/26 05:23:24;;;;;;;351.83;172.37;;;;;;;;;;4405603;32;20224;-75
2021/12/26 05:25:50;;;;;;;346.67;171.87;;;;;;;;;;4405571;32;20496;-75
2021/12/26 05:28:15;;;;;;;343.63;175.30;;;;;;;;;;4407678;32;20312;-75
2021/12/26 05:30:41;;;;;;;338.37;169.90;;;;;;;;;;4406198;32;20260;-78
2021/12/26 05:33:06;;;;;;;349.37;179.57;;;;;;;;;;4405911;32;20266;-76
2021/12/26 05:35:32;;;;;;;357.40;184.27;;;;;;;;;;4406440;32;20220;-76
2021/12/26 05:37:58;;;;;;;390.17;194.03;;;;;;;;;;4406996;32;20259;-78
2021/12/26 05:40:24;;;;;;;360.97;181.43;;;;;;;;;;4408067;32;20273;-82
2021/12/26 05:42:50;;;;;;;362.00;181.17;;;;;;;;;;4408355;32;20205;-78
2021/12/26 05:45:17;;;;;;;354.77;182.73;;;;;;;;;;4413874;32;20198;-76
2021/12/26 05:47:42;;;;;;;344.80;175.17;;;;;;;;;;4418417;32;20297;-72
2021/12/26 05:50:12;;;;;;;355.43;182.83;;;;;;;;;;4418588;32;20224;-74
2021/12/26 05:52:37;;;;;;;346.03;174.80;;;;;;;;;;4418139;32;20277;-76
2021/12/26 05:55:04;;;;;;;351.17;180.67;;;;;;;;;;4418047;32;20237;-76
2021/12/26 05:57:29;;;;;;;347.07;178.17;;;;;;;;;;4418740;32;20286;-78
2021/12/26 05:59:55;;;;;;;349.70;177.00;;;;;;;;;;4411096;32;20205;-76
2021/12/26 06:02:20;;;;;;;365.00;181.93;;;;;;;;;;4405114;32;20776;-76
2021/12/26 06:04:46;;;;;;;353.03;176.90;;;;;;;;;;4391502;32;20256;-77
2021/12/26 06:07:11;;;;;;;363.23;182.93;;;;;;;;;;4404693;32;20288;-75
2021/12/26 06:09:37;;;;;;;360.87;193.83;;;;;;;;;;4405064;32;20237;-79
2021/12/26 06:12:03;;;;;;;394.40;202.03;;;;;;;;;;4405100;32;20225;-74
2021/12/26 06:14:28;;;;;;;391.83;197.97;;;;;;;;;;4405270;32;20326;-78
2021/12/26 06:16:54;;;;;;;373.40;204.33;;;;;;;;;;4405424;32;20230;-77
2021/12/26 06:19:19;;;;;;;398.80;200.83;;;;;;;;;;4404984;32;20251;-76
2021/12/26 06:21:44;;;;;;;394.87;200.57;;;;;;;;;;4404852;32;20220;-75
2021/12/26 06:24:10;;;;;;;364.20;191.53;;;;;;;;;;4404589;32;20255;-76
2021/12/26 06:26:36;;;;;;;378.97;192.17;;;;;;;;;;4404515;32;20272;-77
2021/12/26 06:29:02;;;;;;;343.83;177.77;;;;;;;;;;4404395;32;20280;-76
2021/12/26 06:31:28;;;;;;;350.37;178.50;;;;;;;;;;4405368;32;20279;-76
2021/12/26 06:33:53;;;;;;;325.87;176.47;;;;;;;;;;4406461;32;20199;-86
2021/12/26 06:36:19;;;;;;;335.17;177.37;;;;;;;;;;4405465;32;20611;-76
2021/12/26 06:38:45;;;;;;;349.43;177.10;;;;;;;;;;4404717;32;20194;-75
2021/12/26 06:41:12;;;;;;;357.03;192.73;;;;;;;;;;4404677;32;20221;-82
2021/12/26 06:43:39;;;;;;;397.83;201.47;;;;;;;;;;4391167;32;20266;-81
2021/12/26 06:46:06;;;;;;;398.50;212.90;;;;;;;;;;4404849;32;20341;-76
2021/12/26 06:48:32;;;;;;;455.57;238.57;;;;;;;;;;4390992;32;20374;-75
2021/12/26 06:50:58;;;;;;;438.87;241.47;;;;;;;;;;4404984;32;20290;-75
2021/12/26 06:53:23;;;;;;;420.97;219.33;;;;;;;;;;4404574;32;20206;-77
2021/12/26 06:55:49;;;;;;;336.50;180.83;;;;;;;;;;4404783;32;20355;-75
2021/12/26 06:58:16;;;;;;;348.33;177.33;;;;;;;;;;4405000;32;20228;-75
2021/12/26 07:00:42;;;;;;;320.97;163.77;;;;;;;;;;4404422;32;20278;-75
2021/12/26 07:03:08;;;;;;;519.67;291.50;;;;;;;;;;4404639;32;20237;-75
2021/12/26 07:05:34;;;;;;;475.77;267.77;;;;;;;;;;4404516;32;20198;-74
2021/12/26 07:08:00;;;;;;;347.20;179.40;;;;;;;;;;4406915;32;20193;-77
2021/12/26 07:10:25;;;;;;;447.80;249.67;;;;;;;;;;4407645;32;20666;-79
2021/12/26 07:12:51;;;;;;;378.67;194.17;;;;;;;;;;4407166;32;20342;-79
2021/12/26 07:15:16;;;;;;;288.03;155.87;;;;;;;;;;4406370;32;20198;-78
2021/12/26 07:17:42;;;;;;;295.67;153.73;;;;;;;;;;4407068;32;20225;-75
2021/12/26 07:20:11;;;;;;;353.83;177.97;;;;;;;;;;4407598;32;20201;-77
2021/12/26 07:22:38;;;;;;;382.27;198.30;;;;;;;;;;4407299;32;20301;-80
2021/12/26 07:25:05;;;;;;;406.47;203.17;;;;;;;;;;4406859;32;20580;-75
2021/12/26 07:27:31;;;;;;;402.53;206.43;;;;;;;;;;4406954;32;20217;-73
2021/12/26 07:29:58;;;;;;;394.40;201.77;;;;;;;;;;4406642;32;20276;-77
2021/12/26 07:32:24;;;;;;;374.37;193.57;;;;;;;;;;4407298;32;20233;-80
2021/12/26 07:34:50;;;;;;;370.23;187.83;;;;;;;;;;4408153;32;20231;-79
2021/12/26 07:37:16;;;;;;;375.53;199.73;;;;;;;;;;4408288;32;20614;-78
2021/12/26 07:39:43;;;;;;;366.53;193.93;;;;;;;;;;4407024;32;20379;-86
2021/12/26 07:42:09;;;;;;;359.03;183.17;;;;;;;;;;4393681;32;20668;-84
2021/12/26 07:44:35;;;;;;;362.50;186.27;;;;;;;;;;4407730;32;20500;-78
2021/12/26 07:47:00;;;;;;;341.80;175.00;;;;;;;;;;4407415;32;20248;-78
2021/12/26 07:49:27;;;;;;;368.33;193.43;;;;;;;;;;4407202;32;20271;-78
2021/12/26 07:51:53;;;;;;;387.30;197.27;;;;;;;;;;4407415;32;20294;-84
2021/12/26 07:54:22;;;;;;;403.13;209.87;;;;;;;;;;4407749;32;20214;-81
2021/12/26 07:56:47;;;;;;;399.47;210.47;;;;;;;;;;4406496;32;20286;-76
2021/12/26 07:59:13;;;;;;;385.47;202.47;;;;;;;;;;4406572;32;20332;-85
2021/12/26 08:01:39;;;;;;;417.93;213.97;;;;;;;;;;4406292;32;20280;-84
2021/12/26 08:04:05;;;;;;;416.67;214.53;;;;;;;;;;4410117;32;20233;-86
2021/12/26 08:06:31;;;;;;;405.33;211.57;;;;;;;;;;4406617;32;20622;-81
2021/12/26 08:08:57;;;;;;;416.73;211.00;;;;;;;;;;4407718;32;20202;-79
2021/12/26 08:11:23;;;;;;;422.30;224.50;;;;;;;;;;4408885;32;20225;-83
2021/12/26 08:13:48;;;;;;;432.47;230.27;;;;;;;;;;4411530;32;20272;-79
2021/12/26 08:16:14;;;;;;;429.90;226.17;;;;;;;;;;4411374;32;20325;-80
2021/12/26 08:18:41;;;;;;;412.47;205.67;;;;;;;;;;4411164;32;20213;-82
2021/12/26 08:21:06;;;;;;;401.57;223.73;;;;;;;;;;4410348;32;20681;-80
2021/12/26 08:23:32;;;;;;;488.77;290.20;;;;;;;;;;4410457;32;20205;-82
2021/12/26 08:25:58;;;;;;;503.90;299.80;;;;;;;;;;4411121;32;20237;-82
2021/12/26 08:28:24;;;;;;;494.37;284.73;;;;;;;;;;4411076;32;20241;-78
2021/12/26 08:30:49;;;;;;;517.47;295.90;;;;;;;;;;4410676;32;20264;-81
2021/12/26 08:33:15;;;;;;;481.20;271.83;;;;;;;;;;4410152;32;20198;-91
2021/12/26 08:35:43;;;;;;;455.83;253.57;;;;;;;;;;4409968;32;20226;-79
2021/12/26 08:38:09;;;;;;;451.23;252.37;;;;;;;;;;4409341;32;20270;-77
2021/12/26 08:40:35;;;;;;;462.20;256.13;;;;;;;;;;4382274;32;20282;-76
2021/12/26 08:43:01;;;;;;;457.70;263.77;;;;;;;;;;4408900;32;20450;-77
2021/12/26 08:45:27;;;;;;;489.43;282.73;;;;;;;;;;4410266;32;20301;-79
2021/12/26 08:47:56;;;;;;;500.93;296.07;;;;;;;;;;4411217;32;20196;-77
2021/12/26 08:50:25;;;;;;;469.60;275.13;;;;;;;;;;4410177;32;20272;-78
2021/12/26 08:52:51;;;;;;;449.17;251.90;;;;;;;;;;4408294;32;20201;-77
2021/12/26 08:55:17;;;;;;;452.63;263.00;;;;;;;;;;4407104;32;20206;-74
2021/12/26 08:57:43;;;;;;;461.83;267.80;;;;;;;;;;4407282;32;20226;-74
2021/12/26 09:00:10;;;;;;;449.23;262.30;;;;;;;;;;4406943;32;20213;-76
2021/12/26 09:02:36;;;;;;;442.90;267.00;;;;;;;;;;4406691;32;20753;-76
2021/12/26 09:05:02;;;;;;;515.87;316.67;;;;;;;;;;4407042;32;20302;-76
2021/12/26 09:07:31;;;;;;;538.33;338.83;;;;;;;;;;4407880;32;20237;-75
2021/12/26 09:09:57;;;;;;;556.13;361.60;;;;;;;;;;4407165;32;20647;-89
2021/12/26 09:12:23;;;;;;;565.23;356.60;;;;;;;;;;4405591;32;20279;-77
2021/12/26 09:14:49;;;;;;;548.13;359.63;;;;;;;;;;4406118;32;20637;-75
2021/12/26 09:17:15;;;;;;;548.53;358.50;;;;;;;;;;4406883;32;20220;-78
2021/12/26 09:19:41;;;;;;;570.37;375.43;;;;;;;;;;4407371;32;20293;-76
2021/12/26 09:22:09;;;;;;;577.93;380.03;;;;;;;;;;4405932;32;20221;-75
2021/12/26 09:24:38;;;;;;;572.23;367.30;;;;;;;;;;4394297;32;20274;-75
2021/12/26 09:27:04;;;;;;;559.80;353.07;;;;;;;;;;4406293;32;20237;-77
2021/12/26 09:29:30;;;;;;;557.90;356.60;;;;;;;;;;4406178;32;20529;-76
2021/12/26 09:31:56;;;;;;;557.80;359.47;;;;;;;;;;4406045;32;20256;-75
2021/12/26 09:34:23;;;;;;;529.63;341.23;;;;;;;;;;4406759;32;20701;-75
2021/12/26 09:36:52;;;;;;;440.10;246.17;;;;;;;;;;4407544;32;20313;-83
2021/12/26 09:39:23;;;;;;;411.77;226.67;;;;;;;;;;4394339;32;20226;-80
2021/12/26 09:41:52;;;;;;;393.77;220.70;;;;;;;;;;4408208;32;20225;-77
2021/12/26 09:44:19;;;;;;;392.13;216.43;;;;;;;;;;4406798;32;20697;-75
2021/12/26 09:46:45;;;;;;;370.40;214.70;;;;;;;;;;4406870;32;20286;-85
2021/12/26 09:49:10;;;;;;;429.93;233.37;;;;;;;;;;4406707;32;20206;-75
2021/12/26 09:51:36;;;;;;;419.77;236.60;;;;;;;;;;4406211;32;20677;-76
2021/12/26 09:54:04;;;;;;;416.17;247.20;;;;;;;;;;4406717;32;20676;-75
2021/12/26 09:56:30;;;;;;;414.40;234.80;;;;;;;;;;4407417;32;20300;-85
2021/12/26 09:59:04;;;;;;;459.00;272.37;;;;;;;;;;4406439;32;20313;-73
2021/12/26 10:01:48;;;;;;;460.73;274.13;;;;;;;;;;4407618;32;20213;-78
2021/12/26 10:04:20;;;;;;;469.97;277.27;;;;;;;;;;4405341;32;20259;-74
2021/12/26 10:06:48;;;;;;;441.37;256.93;;;;;;;;;;4404714;32;20352;-78
2021/12/26 10:09:13;;;;;;;438.83;251.87;;;;;;;;;;4391786;32;20210;-76
2021/12/26 10:11:42;;;;;;;442.77;249.83;;;;;;;;;;4405492;32;20710;-76
2021/12/26 10:14:11;;;;;;;439.77;244.50;;;;;;;;;;4405803;32;20224;-88
2021/12/26 10:16:43;;;;;;;421.80;239.17;;;;;;;;;;4410003;32;20297;-83
2021/12/26 10:19:10;;;;;;;360.40;203.97;;;;;;;;;;4407223;32;20257;-81
2021/12/26 10:21:41;;;;;;;355.03;191.37;;;;;;;;;;4406303;32;20302;-83
2021/12/26 10:24:21;;;;;;;289.20;161.93;;;;;;;;;;4406278;32;20205;-87
2021/12/26 10:27:04;;;;;;;324.17;184.27;;;;;;;;;;4406522;32;20292;-86
2021/12/26 10:29:38;;;;;;;375.37;211.93;;;;;;;;;;4408453;32;20190;-88
2021/12/26 10:32:15;;;;;;;442.13;256.47;;;;;;;;;;4408591;32;20265;-84
2021/12/26 10:34:44;;;;;;;467.83;275.27;;;;;;;;;;4408433;32;20218;-82
2021/12/26 10:37:13;;;;;;;464.03;280.40;;;;;;;;;;4408944;32;20224;-82
2021/12/26 10:40:00;;;;;;;472.83;282.60;;;;;;;;;;4406728;32;20232;-79
2021/12/26 10:42:31;;;;;;;464.47;274.93;;;;;;;;;;4408953;32;20288;-82
2021/12/26 10:45:00;;;;;;;451.87;264.87;;;;;;;;;;4409817;32;20193;-84
2021/12/26 10:47:32;;;;;;;447.50;263.63;;;;;;;;;;4409268;32;20225;-83
2021/12/26 10:49:59;;;;;;;469.67;274.33;;;;;;;;;;4408173;32;20278;-83
2021/12/26 10:52:34;;;;;;;439.10;248.37;;;;;;;;;;4409472;32;20278;-85
2021/12/26 10:55:07;;;;;;;359.00;201.90;;;;;;;;;;4408986;32;20194;-84
2021/12/26 10:57:41;;;;;;;379.90;194.60;;;;;;;;;;4409149;32;20225;-89
2021/12/26 11:00:10;;;;;;;334.67;183.37;;;;;;;;;;4407423;32;20593;-79
2021/12/26 11:02:36;;;;;;;287.93;155.60;;;;;;;;;;4395819;32;20229;-79
2021/12/26 11:05:06;;;;;;;275.37;148.90;;;;;;;;;;4408296;32;20661;-81
2021/12/26 11:07:46;;;;;;;256.97;140.77;;;;;;;;;;4409579;32;20339;-80
2021/12/26 11:10:19;;;;;;;264.40;139.73;;;;;;;;;;4409224;32;20299;-80
2021/12/26 11:12:48;;;;;;;259.93;134.33;;;;;;;;;;4409746;32;20224;-80
2021/12/26 11:15:16;;;;;;;255.73;130.57;;;;;;;;;;4408460;32;20644;-86
2021/12/26 11:17:45;;;;;;;243.17;130.43;;;;;;;;;;4410212;32;20364;-87
2021/12/26 11:20:24;;;;;;;217.10;111.20;;;;;;;;;;4393987;32;20234;-81
2021/12/26 11:22:49;;;;;;;228.10;119.53;;;;;;;;;;4407219;32;20228;-83
2021/12/26 11:25:15;;;;;;;231.70;123.43;;;;;;;;;;4407857;32;20318;-80
2021/12/26 11:27:40;;;;;;;227.37;120.03;;;;;;;;;;4393898;32;20303;-81
2021/12/26 11:30:09;;;;;;;225.07;116.73;;;;;;;;;;4408456;32;20265;-79
2021/12/26 11:32:35;;;;;;;214.87;118.13;;;;;;;;;;4408189;32;20290;-82
2021/12/26 11:35:02;;;;;;;239.40;125.80;;;;;;;;;;4393756;32;20233;-81
2021/12/26 11:37:28;;;;;;;225.73;126.87;;;;;;;;;;4407665;32;20268;-82
2021/12/26 11:39:54;;;;;;;398.67;226.70;;;;;;;;;;4407100;32;20224;-81
2021/12/26 11:42:48;;;;;;;364.60;204.87;;;;;;;;;;4407713;32;20235;-81
2021/12/26 11:45:22;;;;;;;319.27;179.33;;;;;;;;;;4407817;32;20189;-82
2021/12/26 11:48:22;;;;;;;299.90;177.23;;;;;;;;;;4393599;32;20374;-83
2021/12/26 11:50:53;;;;;;;294.93;168.50;;;;;;;;;;4408320;32;20466;-82
2021/12/26 11:53:38;;;;;;;289.00;166.60;;;;;;;;;;4407612;32;20674;-83
2021/12/26 11:56:32;;;;;;;287.87;164.80;;;;;;;;;;4407737;32;20212;-84
2021/12/26 11:59:09;;;;;;;293.60;169.63;;;;;;;;;;4407563;32;20282;-80
2021/12/26 12:01:42;;;;;;;328.60;186.53;;;;;;;;;;4407549;32;20193;-83
2021/12/26 12:04:20;;;;;;;308.73;170.80;;;;;;;;;;4407710;32;20214;-83
2021/12/26 12:06:47;;;;;;;316.80;178.37;;;;;;;;;;4394712;32;20251;-85
2021/12/26 12:09:25;;;;;;;342.63;193.07;;;;;;;;;;4408673;32;20235;-85
2021/12/26 12:11:58;;;;;;;316.47;192.47;;;;;;;;;;4411224;32;20223;-86
2021/12/26 12:14:54;;;;;;;325.53;184.17;;;;;;;;;;4401041;32;20279;-81
2021/12/26 12:17:26;;;;;;;347.00;204.93;;;;;;;;;;4406823;32;20222;-80
2021/12/26 12:20:27;;;;;;;228.63;128.57;;;;;;;;;;4414041;32;20300;-77
2021/12/26 12:23:04;;;;;;;254.63;150.10;;;;;;;;;;4337146;33;20227;-86
2021/12/26 12:25:36;;;;;;;273.53;159.00;;;;;;;;;;4399583;32;20358;-84
2021/12/26 12:28:19;;;;;;;310.47;184.57;;;;;;;;;;4407481;32;20292;-82
2021/12/26 12:30:51;;;;;;;314.93;179.40;;;;;;;;;;4407240;32;20198;-82
2021/12/26 12:33:30;;;;;;;393.07;239.23;;;;;;;;;;4406386;32;20247;-82
2021/12/26 12:36:08;;;;;;;428.23;256.47;;;;;;;;;;4407127;32;20702;-81
2021/12/26 12:38:38;;;;;;;433.50;262.17;;;;;;;;;;4407359;32;20313;-79
2021/12/26 12:41:05;;;;;;;434.90;263.20;;;;;;;;;;4407662;32;20223;-77
2021/12/26 12:43:42;;;;;;;475.47;283.03;;;;;;;;;;4392866;32;20225;-83
2021/12/26 12:46:09;;;;;;;315.77;189.57;;;;;;;;;;4406868;32;20228;-81
2021/12/26 12:48:47;;;;;;;399.27;240.50;;;;;;;;;;4407988;32;20603;-81
2021/12/26 12:51:18;;;;;;;415.00;239.73;;;;;;;;;;4407759;32;20193;-80
2021/12/26 12:53:47;;;;;;;377.43;231.13;;;;;;;;;;4407849;32;20612;-79
2021/12/26 12:56:32;;;;;;;407.10;243.70;;;;;;;;;;4407848;32;20274;-80
2021/12/26 12:59:12;;;;;;;391.30;240.90;;;;;;;;;;4407326;32;20697;-79
2021/12/26 13:01:40;;;;;;;344.50;206.43;;;;;;;;;;4393116;32;20251;-85
2021/12/26 13:04:06;;;;;;;419.83;252.17;;;;;;;;;;4407072;32;20336;-81
2021/12/26 13:06:32;;;;;;;437.03;268.57;;;;;;;;;;4406404;32;20284;-79
2021/12/26 13:08:57;;;;;;;403.97;252.27;;;;;;;;;;4405972;32;20258;-79
2021/12/26 13:11:24;;;;;;;413.73;245.60;;;;;;;;;;4405983;32;20216;-80
2021/12/26 13:13:50;;;;;;;408.87;248.27;;;;;;;;;;4406157;32;20251;-80
2021/12/26 13:16:16;;;;;;;452.63;271.20;;;;;;;;;;4405854;32;20229;-79
2021/12/26 13:18:42;;;;;;;463.53;278.33;;;;;;;;;;4405766;32;20323;-79
2021/12/26 13:21:10;;;;;;;462.87;288.60;;;;;;;;;;4405732;32;20273;-80
2021/12/26 13:23:38;;;;;;;447.43;277.20;;;;;;;;;;4406090;32;20247;-80
2021/12/26 13:26:05;;;;;;;447.23;269.10;;;;;;;;;;4405621;32;20213;-83
2021/12/26 13:28:33;;;;;;;439.53;263.80;;;;;;;;;;4405786;32;20243;-80
2021/12/26 13:31:09;;;;;;;423.00;255.83;;;;;;;;;;4391919;32;20212;-79
2021/12/26 13:33:35;;;;;;;483.60;291.10;;;;;;;;;;4405785;32;20225;-80
2021/12/26 13:36:07;;;;;;;493.03;295.00;;;;;;;;;;4405674;32;20227;-80
2021/12/26 13:38:33;;;;;;;472.50;282.37;;;;;;;;;;4405655;32;20319;-80
2021/12/26 13:40:59;;;;;;;480.60;289.17;;;;;;;;;;4392508;32;20289;-80
2021/12/26 13:43:29;;;;;;;470.70;281.80;;;;;;;;;;4405867;32;20554;-80
2021/12/26 13:45:56;;;;;;;449.37;270.63;;;;;;;;;;4391785;32;20221;-80
2021/12/26 13:48:34;;;;;;;408.13;245.70;;;;;;;;;;4405044;32;20293;-80
2021/12/26 13:51:27;;;;;;;442.20;266.30;;;;;;;;;;4405312;32;20606;-78
2021/12/26 13:53:59;;;;;;;466.37;280.43;;;;;;;;;;4405783;32;20218;-80
2021/12/26 13:56:25;;;;;;;479.53;291.47;;;;;;;;;;4405605;32;20182;-79
2021/12/26 13:58:51;;;;;;;477.73;298.97;;;;;;;;;;4405234;32;20237;-80